Time,TemperatureF,DewpointF,PressureIn,WindDirection,WindDirectionDegrees,WindSpeedMPH,WindSpeedGustMPH,Humidity,HourlyPrecipIn,Conditions,Clouds,dailyrainin,SoftwareType,DateUTC
2013-08-07 00:09:00,58.4,55.0,30.00,East,82,0.0,4.0,88,0.00,,,0.00,weatherlink.com 1.10,2013-08-07 07:09:00,
2013-08-07 00:24:00,58.3,55.0,30.00,ESE,121,0.0,2.0,88,0.00,,,0.00,weatherlink.com 1.10,2013-08-07 07:24:00,
2013-08-07 00:39:00,58.1,54.0,30.01,ENE,73,0.0,3.0,87,0.00,,,0.00,weatherlink.com 1.10,2013-08-07 07:39:00,
2013-08-07 00:54:00,58.0,54.0,30.01,ENE,68,0.0,2.0,87,0.00,,,0.00,weatherlink.com 1.10,2013-08-07 07:54:00,
2013-08-07 01:09:00,58.1,54.0,30.01,ENE,71,0.0,2.0,85,0.00,,,0.00,weatherlink.com 1.10,2013-08-07 08:09:00,
2013-08-07 01:24:00,58.0,54.0,30.01,ENE,66,1.0,3.0,87,0.00,,,0.00,weatherlink.com 1.10,2013-08-07 08:24:00,
2013-08-07 01:39:00,57.8,54.0,30.01,East,90,3.0,4.0,87,0.00,,,0.00,weatherlink.com 1.10,2013-08-07 08:39:00,
2013-08-07 01:54:00,57.7,54.0,30.01,East,82,1.0,4.0,86,0.00,,,0.00,weatherlink.com 1.10,2013-08-07 08:54:00,
2013-08-07 02:09:00,57.6,54.0,30.01,East,81,1.0,4.0,86,0.00,,,0.00,weatherlink.com 1.10,2013-08-07 09:09:00,
2013-08-07 02:24:00,57.5,53.0,30.00,NE,56,0.0,5.0,86,0.00,,,0.00,weatherlink.com 1.10,2013-08-07 09:24:00,
2013-08-07 02:39:00,57.4,54.0,30.01,NE,53,0.0,3.0,87,0.00,,,0.00,weatherlink.com 1.10,2013-08-07 09:39:00,
2013-08-07 02:54:00,57.4,54.0,30.01,East,81,2.0,3.0,87,0.00,,,0.00,weatherlink.com 1.10,2013-08-07 09:54:00,
2013-08-07 03:09:00,57.2,53.0,30.01,ENE,75,1.0,2.0,87,0.00,,,0.00,weatherlink.com 1.10,2013-08-07 10:09:00,
2013-08-07 03:24:00,57.0,54.0,30.01,ENE,70,0.0,2.0,88,0.00,,,0.00,weatherlink.com 1.10,2013-08-07 10:24:00,
2013-08-07 03:39:00,56.8,54.0,30.01,East,88,0.0,3.0,89,0.00,,,0.00,weatherlink.com 1.10,2013-08-07 10:39:00,
2013-08-07 03:54:00,56.9,53.0,30.01,East,80,0.0,1.0,88,0.00,,,0.00,weatherlink.com 1.10,2013-08-07 10:54:00,
2013-08-07 04:09:00,57.0,54.0,30.01,East,85,0.0,1.0,88,0.00,,,0.00,weatherlink.com 1.10,2013-08-07 11:09:00,
2013-08-07 04:24:00,57.0,54.0,30.01,East,85,0.0,0.0,89,0.00,,,0.00,weatherlink.com 1.10,2013-08-07 11:24:00,
2013-08-07 04:39:00,56.8,54.0,30.00,East,85,0.0,0.0,90,0.00,,,0.00,weatherlink.com 1.10,2013-08-07 11:39:00,
2013-08-07 04:54:00,56.8,54.0,30.01,East,85,0.0,0.0,90,0.00,,,0.00,weatherlink.com 1.10,2013-08-07 11:54:00,
2013-08-07 05:10:00,56.7,54.0,30.00,East,85,0.0,0.0,91,0.00,,,0.00,weatherlink.com 1.10,2013-08-07 12:10:00,
2013-08-07 05:25:00,56.7,54.0,30.00,East,85,0.0,0.0,91,0.00,,,0.00,weatherlink.com 1.10,2013-08-07 12:25:00,
2013-08-07 05:40:00,56.4,54.0,30.00,East,85,0.0,0.0,91,0.00,,,0.00,weatherlink.com 1.10,2013-08-07 12:40:00,
2013-08-07 05:55:00,56.2,54.0,30.01,South,185,0.0,0.0,92,0.00,,,0.00,weatherlink.com 1.10,2013-08-07 12:55:00,
2013-08-07 06:10:00,56.2,54.0,30.00,South,185,0.0,0.0,92,0.00,,,0.00,weatherlink.com 1.10,2013-08-07 13:10:00,
2013-08-07 06:25:00,56.2,54.0,30.01,South,186,0.0,0.0,92,0.00,,,0.00,weatherlink.com 1.10,2013-08-07 13:25:00,
2013-08-07 06:40:00,56.4,54.0,30.01,South,185,0.0,0.0,92,0.00,,,0.00,weatherlink.com 1.10,2013-08-07 13:40:00,
2013-08-07 06:55:00,56.7,55.0,30.01,South,185,0.0,0.0,93,0.00,,,0.00,weatherlink.com 1.10,2013-08-07 13:55:00,
2013-08-07 07:10:00,56.9,55.0,30.01,South,185,0.0,0.0,93,0.00,,,0.00,weatherlink.com 1.10,2013-08-07 14:10:00,
2013-08-07 07:25:00,57.0,55.0,30.01,South,185,0.0,0.0,93,0.00,,,0.00,weatherlink.com 1.10,2013-08-07 14:25:00,
2013-08-07 07:40:00,57.2,55.0,30.02,South,184,0.0,0.0,92,0.00,,,0.00,weatherlink.com 1.10,2013-08-07 14:40:00,
2013-08-07 07:55:00,57.6,56.0,30.02,South,185,0.0,0.0,93,0.00,,,0.00,weatherlink.com 1.10,2013-08-07 14:55:00,
2013-08-07 08:10:00,58.3,56.0,30.02,South,185,0.0,0.0,92,0.00,,,0.00,weatherlink.com 1.10,2013-08-07 15:10:00,
2013-08-07 08:25:00,58.6,56.0,30.03,South,191,0.0,0.0,91,0.00,,,0.00,weatherlink.com 1.10,2013-08-07 15:25:00,
2013-08-07 08:40:00,59.2,55.0,30.03,ENE,69,0.0,0.0,87,0.00,,,0.00,weatherlink.com 1.10,2013-08-07 15:40:00,
2013-08-07 08:55:00,60.5,55.0,30.03,NE,46,2.0,3.0,83,0.00,,,0.00,weatherlink.com 1.10,2013-08-07 15:55:00,
2013-08-07 09:10:00,60.8,55.0,30.04,SSE,151,0.0,3.0,81,0.00,,,0.00,weatherlink.com 1.10,2013-08-07 16:10:00,
2013-08-07 09:25:00,62.0,56.0,30.04,SSE,160,0.0,3.0,80,0.00,,,0.00,weatherlink.com 1.10,2013-08-07 16:25:00,
2013-08-07 09:40:00,63.0,56.0,30.04,SSE,153,0.0,1.0,78,0.00,,,0.00,weatherlink.com 1.10,2013-08-07 16:40:00,
2013-08-07 09:55:00,62.5,56.0,30.05,NE,51,2.0,3.0,78,0.00,,,0.00,weatherlink.com 1.10,2013-08-07 16:55:00,
2013-08-07 10:10:00,63.2,56.0,30.05,ENE,77,1.0,2.0,77,0.00,,,0.00,weatherlink.com 1.10,2013-08-07 17:10:00,
2013-08-07 10:25:00,63.2,56.0,30.05,ENE,77,1.0,7.0,77,0.00,,,0.00,weatherlink.com 1.10,2013-08-07 17:25:00,
2013-08-07 10:40:00,63.7,56.0,30.05,SSE,153,0.0,4.0,76,0.00,,,0.00,weatherlink.com 1.10,2013-08-07 17:40:00,
2013-08-07 10:55:00,64.9,56.0,30.05,ENE,62,4.0,4.0,73,0.00,,,0.00,weatherlink.com 1.10,2013-08-07 17:55:00,
2013-08-07 11:10:00,64.7,55.0,30.05,NNE,32,2.0,5.0,72,0.00,,,0.00,weatherlink.com 1.10,2013-08-07 18:10:00,
2013-08-07 11:25:00,66.3,57.0,30.06,NE,39,2.0,6.0,71,0.00,,,0.00,weatherlink.com 1.10,2013-08-07 18:25:00,
2013-08-07 11:40:00,65.4,56.0,30.06,ENE,64,2.0,6.0,71,0.00,,,0.00,weatherlink.com 1.10,2013-08-07 18:40:00,
2013-08-07 11:55:00,65.7,56.0,30.05,NW,311,0.0,6.0,71,0.00,,,0.00,weatherlink.com 1.10,2013-08-07 18:55:00,
2013-08-07 12:10:00,66.5,56.0,30.05,NE,49,2.0,6.0,70,0.00,,,0.00,weatherlink.com 1.10,2013-08-07 19:10:00,
2013-08-07 12:25:00,67.2,56.0,30.05,ENE,61,1.0,7.0,68,0.00,,,0.00,weatherlink.com 1.10,2013-08-07 19:25:00,
2013-08-07 12:40:00,66.9,56.0,30.05,NE,51,2.0,9.0,69,0.00,,,0.00,weatherlink.com 1.10,2013-08-07 19:40:00,
2013-08-07 12:55:00,68.3,57.0,30.04,NE,52,2.0,4.0,67,0.00,,,0.00,weatherlink.com 1.10,2013-08-07 19:55:00,
2013-08-07 13:25:00,68.5,56.0,30.04,ENE,72,2.0,7.0,64,0.00,,,0.00,weatherlink.com 1.10,2013-08-07 20:25:00,
2013-08-07 13:40:00,68.8,56.0,30.04,ENE,74,3.0,6.0,64,0.00,,,0.00,weatherlink.com 1.10,2013-08-07 20:40:00,
2013-08-07 13:55:00,69.7,56.0,30.04,ENE,62,3.0,7.0,62,0.00,,,0.00,weatherlink.com 1.10,2013-08-07 20:55:00,
2013-08-07 14:11:00,70.5,56.0,30.04,South,170,0.0,8.0,61,0.00,,,0.00,weatherlink.com 1.10,2013-08-07 21:11:00,
2013-08-07 14:26:00,70.1,56.0,30.03,NE,44,5.0,12.0,61,0.00,,,0.00,weatherlink.com 1.10,2013-08-07 21:26:00,
2013-08-07 14:41:00,70.4,56.0,30.03,NNE,17,2.0,9.0,61,0.00,,,0.00,weatherlink.com 1.10,2013-08-07 21:41:00,
2013-08-07 14:56:00,70.5,56.0,30.03,ENE,76,6.0,7.0,60,0.00,,,0.00,weatherlink.com 1.10,2013-08-07 21:56:00,
2013-08-07 15:11:00,70.7,56.0,30.02,ENE,68,1.0,9.0,60,0.00,,,0.00,weatherlink.com 1.10,2013-08-07 22:11:00,
2013-08-07 15:26:00,70.8,56.0,30.03,East,91,1.0,9.0,60,0.00,,,0.00,weatherlink.com 1.10,2013-08-07 22:26:00,
2013-08-07 15:41:00,70.3,56.0,30.02,East,94,4.0,10.0,61,0.00,,,0.00,weatherlink.com 1.10,2013-08-07 22:41:00,
2013-08-07 15:56:00,69.9,56.0,30.02,ENE,61,2.0,10.0,61,0.00,,,0.00,weatherlink.com 1.10,2013-08-07 22:56:00,
2013-08-07 16:11:00,70.3,57.0,30.02,ENE,72,5.0,5.0,62,0.00,,,0.00,weatherlink.com 1.10,2013-08-07 23:11:00,
2013-08-07 16:26:00,69.9,57.0,30.01,East,81,4.0,6.0,63,0.00,,,0.00,weatherlink.com 1.10,2013-08-07 23:26:00,
2013-08-07 16:41:00,69.3,57.0,30.01,ESE,105,2.0,10.0,64,0.00,,,0.00,weatherlink.com 1.10,2013-08-07 23:41:00,
2013-08-07 16:56:00,68.6,56.0,30.01,NE,55,2.0,9.0,65,0.00,,,0.00,weatherlink.com 1.10,2013-08-07 23:56:00,
2013-08-07 17:11:00,67.5,57.0,30.01,ENE,68,3.0,11.0,68,0.00,,,0.00,weatherlink.com 1.10,2013-08-08 00:11:00,
2013-08-07 17:26:00,66.5,56.0,30.01,East,97,3.0,9.0,70,0.00,,,0.00,weatherlink.com 1.10,2013-08-08 00:26:00,
2013-08-07 17:41:00,66.3,57.0,30.01,East,82,1.0,6.0,71,0.00,,,0.00,weatherlink.com 1.10,2013-08-08 00:41:00,
2013-08-07 17:56:00,66.7,57.0,30.00,NE,51,3.0,5.0,70,0.00,,,0.00,weatherlink.com 1.10,2013-08-08 00:56:00,
2013-08-07 18:11:00,65.9,57.0,30.00,NE,55,1.0,3.0,72,0.00,,,0.00,weatherlink.com 1.10,2013-08-08 01:11:00,
2013-08-07 18:26:00,64.8,56.0,30.00,East,81,2.0,6.0,73,0.00,,,0.00,weatherlink.com 1.10,2013-08-08 01:26:00,
2013-08-07 18:41:00,64.0,56.0,30.00,NE,38,3.0,7.0,75,0.00,,,0.00,weatherlink.com 1.10,2013-08-08 01:41:00,
2013-08-07 18:56:00,63.9,56.0,30.00,NNE,13,1.0,4.0,75,0.00,,,0.00,weatherlink.com 1.10,2013-08-08 01:56:00,
2013-08-07 19:11:00,63.8,56.0,30.00,ENE,58,3.0,5.0,76,0.00,,,0.00,weatherlink.com 1.10,2013-08-08 02:11:00,
2013-08-07 19:26:00,63.4,56.0,30.00,ENE,77,0.0,5.0,76,0.00,,,0.00,weatherlink.com 1.10,2013-08-08 02:26:00,
2013-08-07 19:41:00,63.2,56.0,30.00,East,79,0.0,3.0,77,0.00,,,0.00,weatherlink.com 1.10,2013-08-08 02:41:00,
2013-08-07 19:56:00,63.0,56.0,29.99,East,82,1.0,4.0,78,0.00,,,0.00,weatherlink.com 1.10,2013-08-08 02:56:00,
2013-08-07 20:11:00,62.8,56.0,29.99,West,259,0.0,3.0,78,0.00,,,0.00,weatherlink.com 1.10,2013-08-08 03:11:00,
2013-08-07 20:26:00,62.8,56.0,29.99,South,170,1.0,2.0,79,0.00,,,0.00,weatherlink.com 1.10,2013-08-08 03:26:00,
2013-08-07 20:41:00,62.5,56.0,30.00,ESE,106,0.0,2.0,80,0.00,,,0.00,weatherlink.com 1.10,2013-08-08 03:41:00,
2013-08-07 20:56:00,62.2,56.0,30.00,NE,51,2.0,5.0,81,0.00,,,0.00,weatherlink.com 1.10,2013-08-08 03:56:00,
2013-08-07 21:11:00,62.0,56.0,30.00,SSE,158,0.0,2.0,82,0.00,,,0.00,weatherlink.com 1.10,2013-08-08 04:11:00,
2013-08-07 21:26:00,61.5,56.0,30.00,East,84,0.0,2.0,83,0.00,,,0.00,weatherlink.com 1.10,2013-08-08 04:26:00,
2013-08-07 21:41:00,61.0,56.0,30.00,SSE,162,0.0,4.0,84,0.00,,,0.00,weatherlink.com 1.10,2013-08-08 04:41:00,
2013-08-07 21:56:00,60.7,56.0,30.00,ENE,62,1.0,4.0,85,0.00,,,0.00,weatherlink.com 1.10,2013-08-08 04:56:00,
2013-08-07 22:11:00,60.5,57.0,30.00,East,87,0.0,1.0,87,0.00,,,0.00,weatherlink.com 1.10,2013-08-08 05:11:00,
2013-08-07 22:26:00,60.6,56.0,30.00,East,89,1.0,3.0,84,0.00,,,0.00,weatherlink.com 1.10,2013-08-08 05:26:00,
2013-08-07 22:41:00,60.7,56.0,30.00,ENE,59,2.0,3.0,84,0.00,,,0.00,weatherlink.com 1.10,2013-08-08 05:41:00,
2013-08-07 22:56:00,60.7,56.0,30.00,ENE,70,0.0,5.0,84,0.00,,,0.00,weatherlink.com 1.10,2013-08-08 05:56:00,
2013-08-07 23:11:00,60.6,56.0,30.00,ENE,66,3.0,5.0,84,0.00,,,0.00,weatherlink.com 1.10,2013-08-08 06:11:00,
2013-08-07 23:26:00,60.6,56.0,30.00,East,79,1.0,4.0,84,0.00,,,0.00,weatherlink.com 1.10,2013-08-08 06:26:00,
2013-08-07 23:41:00,60.6,56.0,30.00,ENE,64,0.0,3.0,84,0.00,,,0.00,weatherlink.com 1.10,2013-08-08 06:41:00,
2013-08-07 23:56:00,60.6,56.0,30.00,NE,54,0.0,2.0,84,0.00,,,0.00,weatherlink.com 1.10,2013-08-08 06:56:00,